Time;durP1;ratioP1;P1;durP2;ratioP2;P2;SDS_P1;SDS_P2;PMS_P1;PMS_P2;Temp;Humidity;BMP_temperature;BMP_pressure;BME280_temperature;BME280_humidity;BME280_pressure;Samples;Min_cycle;Max_cycle;Signal;HPM_P1;HPM_P2
2021/09/29 00:01:44;;;;;;;4.63;3.63;;;;;;;;;;5032495;28;20817;-51
2021/09/29 00:04:10;;;;;;;7.43;3.10;;;;;;;;;;5032539;28;20450;-50
2021/09/29 00:06:36;;;;;;;6.97;3.40;;;;;;;;;;5032571;28;20424;-49
2021/09/29 00:09:02;;;;;;;9.33;3.20;;;;;;;;;;5032506;28;20413;-48
2021/09/29 00:11:28;;;;;;;4.73;2.83;;;;;;;;;;5032407;28;20435;-51
2021/09/29 00:13:55;;;;;;;5.13;3.03;;;;;;;;;;5032139;28;20478;-49
2021/09/29 00:16:21;;;;;;;8.67;3.63;;;;;;;;;;5032233;28;20958;-50
2021/09/29 00:18:47;;;;;;;10.63;3.10;;;;;;;;;;5032374;28;20407;-50
2021/09/29 00:21:13;;;;;;;5.40;3.07;;;;;;;;;;5032171;28;20826;-51
2021/09/29 00:23:41;;;;;;;8.03;3.47;;;;;;;;;;5031947;28;20448;-50
2021/09/29 00:26:08;;;;;;;5.17;2.83;;;;;;;;;;5032251;28;20485;-49
2021/09/29 00:28:34;;;;;;;4.90;2.63;;;;;;;;;;5032386;28;20776;-50
2021/09/29 00:31:05;;;;;;;8.00;2.70;;;;;;;;;;5032261;28;20905;-51
2021/09/29 00:33:31;;;;;;;3.67;3.37;;;;;;;;;;5031866;28;20430;-51
2021/09/29 00:35:57;;;;;;;4.60;3.03;;;;;;;;;;5031922;28;20442;-49
2021/09/29 00:38:23;;;;;;;2.73;2.53;;;;;;;;;;5032154;28;20855;-51
2021/09/29 00:40:49;;;;;;;8.00;3.47;;;;;;;;;;5032051;28;20407;-50
2021/09/29 00:43:15;;;;;;;4.30;3.10;;;;;;;;;;5031720;28;20937;-51
2021/09/29 00:45:41;;;;;;;7.00;3.67;;;;;;;;;;5031944;28;20435;-50
2021/09/29 00:48:07;;;;;;;10.03;4.53;;;;;;;;;;5031974;28;20835;-51
2021/09/29 00:50:35;;;;;;;3.03;2.43;;;;;;;;;;5031852;28;20493;-49
2021/09/29 00:53:01;;;;;;;9.60;3.10;;;;;;;;;;5031524;28;20878;-50
2021/09/29 00:55:27;;;;;;;6.10;3.03;;;;;;;;;;5032021;28;20403;-50
2021/09/29 00:57:53;;;;;;;6.00;2.80;;;;;;;;;;5031844;28;20458;-50
2021/09/29 01:00:19;;;;;;;7.47;3.37;;;;;;;;;;5031817;28;20402;-50
2021/09/29 01:02:45;;;;;;;7.77;3.30;;;;;;;;;;5030769;28;21006;-50
2021/09/29 01:05:12;;;;;;;5.97;2.93;;;;;;;;;;5031252;28;20514;-48
2021/09/29 01:07:50;;;;;;;2.97;2.30;;;;;;;;;;5031614;28;20488;-50
2021/09/29 01:10:23;;;;;;;5.13;2.63;;;;;;;;;;5031770;28;20398;-49
2021/09/29 01:12:53;;;;;;;3.73;2.27;;;;;;;;;;5031386;28;20609;-51
2021/09/29 01:15:26;;;;;;;8.70;3.10;;;;;;;;;;5031642;28;20419;-50
2021/09/29 01:17:53;;;;;;;4.80;2.63;;;;;;;;;;5031641;28;20464;-50
2021/09/29 01:20:27;;;;;;;3.53;2.73;;;;;;;;;;5031625;28;20852;-49
2021/09/29 01:23:12;;;;;;;7.30;2.63;;;;;;;;;;5031438;28;20466;-51
2021/09/29 01:25:49;;;;;;;4.93;3.10;;;;;;;;;;5031551;28;20421;-51
2021/09/29 01:28:20;;;;;;;7.03;2.87;;;;;;;;;;5031526;28;20421;-50
2021/09/29 01:30:46;;;;;;;4.17;2.40;;;;;;;;;;5031626;28;20391;-50
2021/09/29 01:33:12;;;;;;;6.03;3.03;;;;;;;;;;5032105;28;20937;-50
2021/09/29 01:35:38;;;;;;;5.47;2.83;;;;;;;;;;5035517;28;20425;-50
2021/09/29 01:38:05;;;;;;;12.53;2.77;;;;;;;;;;5035317;28;20962;-50
2021/09/29 01:40:31;;;;;;;4.33;2.53;;;;;;;;;;5035297;28;20874;-50
2021/09/29 01:42:58;;;;;;;7.37;2.73;;;;;;;;;;5034889;28;20426;-50
2021/09/29 01:45:24;;;;;;;7.70;2.87;;;;;;;;;;5035209;28;20502;-49
2021/09/29 01:47:50;;;;;;;6.13;2.60;;;;;;;;;;5035309;28;20965;-48
2021/09/29 01:50:20;;;;;;;4.87;2.80;;;;;;;;;;5035172;28;20452;-48
2021/09/29 01:52:47;;;;;;;3.67;3.20;;;;;;;;;;5034672;28;20991;-48
2021/09/29 01:55:18;;;;;;;7.27;3.70;;;;;;;;;;5034945;28;20416;-50
2021/09/29 01:57:45;;;;;;;8.10;3.57;;;;;;;;;;5034938;28;20508;-50
2021/09/29 02:00:11;;;;;;;7.23;3.50;;;;;;;;;;5034961;28;20406;-48
2021/09/29 02:02:40;;;;;;;7.77;3.33;;;;;;;;;;5034550;28;20518;-50
2021/09/29 02:05:06;;;;;;;12.13;3.00;;;;;;;;;;5034963;28;20407;-50
2021/09/29 02:07:32;;;;;;;4.10;2.43;;;;;;;;;;5034806;28;20528;-51
2021/09/29 02:09:58;;;;;;;5.83;2.90;;;;;;;;;;5034760;28;20482;-50
2021/09/29 02:12:24;;;;;;;6.30;2.50;;;;;;;;;;5034428;28;20426;-49
2021/09/29 02:14:50;;;;;;;6.37;3.10;;;;;;;;;;5034781;28;20418;-50
2021/09/29 02:17:17;;;;;;;2.80;2.50;;;;;;;;;;5034615;28;20996;-50
2021/09/29 02:19:44;;;;;;;5.90;2.53;;;;;;;;;;5034600;28;20404;-51
2021/09/29 02:22:09;;;;;;;6.20;3.10;;;;;;;;;;5034177;28;20432;-51
2021/09/29 02:24:36;;;;;;;4.73;2.60;;;;;;;;;;5034451;28;20426;-51
2021/09/29 02:27:02;;;;;;;9.03;2.93;;;;;;;;;;5034465;28;20402;-51
2021/09/29 02:29:28;;;;;;;5.17;2.97;;;;;;;;;;5034458;28;20407;-51
2021/09/29 02:31:54;;;;;;;7.00;3.10;;;;;;;;;;5034105;28;20490;-50
2021/09/29 02:34:19;;;;;;;3.40;2.63;;;;;;;;;;5034340;28;20454;-50
2021/09/29 02:36:45;;;;;;;3.13;2.57;;;;;;;;;;5034158;28;20461;-50
2021/09/29 02:39:11;;;;;;;6.93;2.87;;;;;;;;;;5034405;28;20404;-50
2021/09/29 02:41:38;;;;;;;5.40;2.53;;;;;;;;;;5034063;28;20399;-49
2021/09/29 02:44:08;;;;;;;5.07;2.30;;;;;;;;;;5033464;28;20423;-48
2021/09/29 02:46:35;;;;;;;9.63;3.13;;;;;;;;;;5033460;28;20395;-51
2021/09/29 02:49:00;;;;;;;5.77;3.00;;;;;;;;;;5034503;28;20494;-50
2021/09/29 02:51:26;;;;;;;6.60;2.77;;;;;;;;;;5033878;28;20445;-50
2021/09/29 02:53:53;;;;;;;12.47;3.10;;;;;;;;;;5033670;28;20427;-51
2021/09/29 02:56:18;;;;;;;3.20;2.60;;;;;;;;;;5033815;28;20462;-50
2021/09/29 02:58:44;;;;;;;3.97;2.77;;;;;;;;;;5034138;28;20394;-50
2021/09/29 03:01:11;;;;;;;5.53;2.40;;;;;;;;;;5033808;28;20891;-50
2021/09/29 03:03:37;;;;;;;6.27;2.30;;;;;;;;;;5033485;28;20427;-49
2021/09/29 03:06:03;;;;;;;2.50;2.30;;;;;;;;;;5033652;28;20407;-51
2021/09/29 03:08:29;;;;;;;3.53;2.27;;;;;;;;;;5033764;28;20400;-51
2021/09/29 03:10:55;;;;;;;6.53;2.60;;;;;;;;;;5033669;28;20405;-51
2021/09/29 03:13:21;;;;;;;4.03;2.97;;;;;;;;;;5033369;28;20415;-50
2021/09/29 03:15:47;;;;;;;6.03;2.57;;;;;;;;;;5033333;28;20471;-51
2021/09/29 03:18:14;;;;;;;3.57;2.47;;;;;;;;;;5033544;28;20910;-51
2021/09/29 03:20:40;;;;;;;2.93;2.60;;;;;;;;;;5033392;28;20400;-49
2021/09/29 03:23:06;;;;;;;3.50;2.00;;;;;;;;;;5033003;28;20423;-49
2021/09/29 03:25:32;;;;;;;8.00;2.20;;;;;;;;;;5032179;28;20955;-50
2021/09/29 03:27:59;;;;;;;7.93;2.57;;;;;;;;;;5033350;28;20775;-50
2021/09/29 03:30:25;;;;;;;8.03;2.63;;;;;;;;;;5033251;28;20409;-49
2021/09/29 03:32:51;;;;;;;6.03;3.10;;;;;;;;;;5032875;28;20791;-49
2021/09/29 03:35:17;;;;;;;5.93;2.93;;;;;;;;;;5033111;28;20413;-51
2021/09/29 03:37:45;;;;;;;3.73;2.40;;;;;;;;;;5033012;28;20481;-51
2021/09/29 03:40:13;;;;;;;4.43;3.07;;;;;;;;;;5033086;28;20498;-51
2021/09/29 03:42:39;;;;;;;8.20;2.90;;;;;;;;;;5032662;28;20419;-51
2021/09/29 03:45:05;;;;;;;7.73;2.87;;;;;;;;;;5033024;28;20452;-50
2021/09/29 03:47:31;;;;;;;2.60;2.40;;;;;;;;;;5032857;28;20883;-48
2021/09/29 03:49:57;;;;;;;4.47;3.03;;;;;;;;;;5032890;28;20544;-50
2021/09/29 03:52:24;;;;;;;11.07;3.63;;;;;;;;;;5032530;28;20419;-51
2021/09/29 03:54:50;;;;;;;3.73;2.53;;;;;;;;;;5032831;28;20409;-51
2021/09/29 03:57:16;;;;;;;12.80;3.80;;;;;;;;;;5032369;28;20941;-50
2021/09/29 03:59:43;;;;;;;11.13;2.70;;;;;;;;;;5032779;28;20429;-50
2021/09/29 04:02:12;;;;;;;8.97;2.60;;;;;;;;;;5032829;28;20489;-48
2021/09/29 04:04:38;;;;;;;4.30;3.00;;;;;;;;;;5032607;28;20409;-50
2021/09/29 04:07:04;;;;;;;7.23;2.53;;;;;;;;;;5032566;28;20498;-51
2021/09/29 04:09:30;;;;;;;8.73;2.97;;;;;;;;;;5032603;28;20409;-50
2021/09/29 04:11:56;;;;;;;10.30;3.00;;;;;;;;;;5032221;28;20430;-50
2021/09/29 04:14:22;;;;;;;5.97;3.10;;;;;;;;;;5032402;28;20427;-50
2021/09/29 04:16:48;;;;;;;3.20;2.70;;;;;;;;;;5032282;28;20800;-49
2021/09/29 04:19:14;;;;;;;3.30;3.00;;;;;;;;;;5032332;28;20403;-51
2021/09/29 04:21:40;;;;;;;6.20;3.20;;;;;;;;;;5032118;28;20434;-51
2021/09/29 04:24:06;;;;;;;3.10;2.80;;;;;;;;;;5032149;28;20783;-50
2021/09/29 04:26:35;;;;;;;5.07;2.80;;;;;;;;;;5032267;28;20404;-50
2021/09/29 04:29:01;;;;;;;5.40;2.77;;;;;;;;;;5032314;28;20406;-50
2021/09/29 04:31:27;;;;;;;5.63;3.20;;;;;;;;;;5032009;28;20425;-50
2021/09/29 04:33:53;;;;;;;10.30;3.43;;;;;;;;;;5031870;28;20419;-49
2021/09/29 04:36:19;;;;;;;5.90;3.13;;;;;;;;;;5032194;28;20450;-49
2021/09/29 04:38:45;;;;;;;7.30;2.73;;;;;;;;;;5032067;28;20949;-50
2021/09/29 04:41:11;;;;;;;8.63;3.80;;;;;;;;;;5031996;28;20838;-49
2021/09/29 04:43:37;;;;;;;5.93;3.10;;;;;;;;;;5031760;28;20502;-48
2021/09/29 04:46:03;;;;;;;3.63;2.63;;;;;;;;;;5031966;28;20870;-48
2021/09/29 04:48:29;;;;;;;8.60;2.87;;;;;;;;;;5032005;28;20402;-48
2021/09/29 04:50:55;;;;;;;3.50;2.77;;;;;;;;;;5032733;28;20411;-46
2021/09/29 04:53:21;;;;;;;6.80;3.30;;;;;;;;;;5031625;28;20472;-45
2021/09/29 04:55:47;;;;;;;4.27;2.60;;;;;;;;;;5031937;28;20399;-46
2021/09/29 04:58:13;;;;;;;5.57;3.47;;;;;;;;;;5031791;28;20584;-45
2021/09/29 05:00:39;;;;;;;3.70;3.40;;;;;;;;;;5031759;28;20896;-46
2021/09/29 05:03:06;;;;;;;5.30;3.23;;;;;;;;;;5031467;28;20477;-45
2021/09/29 05:05:34;;;;;;;6.83;3.60;;;;;;;;;;5031758;28;20400;-49
2021/09/29 05:08:01;;;;;;;2.70;2.57;;;;;;;;;;5032365;28;20437;-46
2021/09/29 05:10:44;;;;;;;4.83;3.30;;;;;;;;;;5035912;28;20412;-48
2021/09/29 05:13:15;;;;;;;3.17;2.87;;;;;;;;;;5035472;28;20568;-45
2021/09/29 05:15:41;;;;;;;8.63;3.63;;;;;;;;;;5035698;28;20465;-48
2021/09/29 05:18:07;;;;;;;7.27;3.90;;;;;;;;;;5035695;28;20760;-45
2021/09/29 05:20:33;;;;;;;5.63;3.33;;;;;;;;;;5035665;28;20402;-45
2021/09/29 05:23:35;;;;;;;6.40;3.53;;;;;;;;;;5034943;28;20454;-45
2021/09/29 05:26:01;;;;;;;4.13;3.83;;;;;;;;;;5035573;28;20400;-45
2021/09/29 05:28:28;;;;;;;6.93;3.20;;;;;;;;;;5035593;28;20764;-46
2021/09/29 05:30:54;;;;;;;3.57;2.80;;;;;;;;;;5035443;28;20399;-49
2021/09/29 05:33:20;;;;;;;10.70;4.73;;;;;;;;;;5035195;28;20414;-48
2021/09/29 05:35:46;;;;;;;4.00;2.97;;;;;;;;;;5035501;28;20716;-45
2021/09/29 05:38:12;;;;;;;8.33;3.23;;;;;;;;;;5035233;28;20862;-45
2021/09/29 05:40:38;;;;;;;6.30;3.50;;;;;;;;;;5035345;28;20461;-45
2021/09/29 05:43:04;;;;;;;4.40;3.30;;;;;;;;;;5034989;28;20427;-45
2021/09/29 05:45:30;;;;;;;7.00;3.97;;;;;;;;;;5035286;28;20410;-45
2021/09/29 05:47:56;;;;;;;3.83;3.20;;;;;;;;;;5035209;28;20415;-45
2021/09/29 05:50:22;;;;;;;6.70;3.27;;;;;;;;;;5035203;28;20828;-47
2021/09/29 05:52:48;;;;;;;5.50;3.10;;;;;;;;;;5034715;28;20441;-45
2021/09/29 05:55:14;;;;;;;4.40;3.50;;;;;;;;;;5035113;28;20430;-45
2021/09/29 05:57:40;;;;;;;6.93;3.40;;;;;;;;;;5034960;28;20544;-45
2021/09/29 06:00:07;;;;;;;5.70;3.03;;;;;;;;;;5035028;28;20392;-46
2021/09/29 06:02:33;;;;;;;7.77;3.13;;;;;;;;;;5034637;28;20510;-47
2021/09/29 06:04:59;;;;;;;8.33;3.83;;;;;;;;;;5034792;28;20438;-46
2021/09/29 06:07:25;;;;;;;8.43;3.20;;;;;;;;;;5034867;28;20407;-47
2021/09/29 06:09:51;;;;;;;9.00;3.90;;;;;;;;;;5034791;28;20411;-48
2021/09/29 06:12:17;;;;;;;7.53;3.97;;;;;;;;;;5034396;28;20406;-47
2021/09/29 06:14:49;;;;;;;8.17;4.37;;;;;;;;;;5034568;28;20494;-48
2021/09/29 06:17:23;;;;;;;8.57;4.63;;;;;;;;;;5034651;28;20455;-48
2021/09/29 06:19:50;;;;;;;5.90;2.83;;;;;;;;;;5034280;28;20405;-46
2021/09/29 06:22:16;;;;;;;6.20;3.20;;;;;;;;;;5034224;28;20399;-46
2021/09/29 06:24:42;;;;;;;5.47;3.30;;;;;;;;;;5034504;28;20462;-47
2021/09/29 06:27:08;;;;;;;8.60;4.60;;;;;;;;;;5034516;28;20401;-46
2021/09/29 06:29:35;;;;;;;5.80;3.37;;;;;;;;;;5034636;28;20412;-46
2021/09/29 06:32:02;;;;;;;8.67;2.47;;;;;;;;;;5034228;28;20748;-47
2021/09/29 06:34:28;;;;;;;6.97;2.30;;;;;;;;;;5034291;28;20441;-48
2021/09/29 06:36:55;;;;;;;4.73;2.50;;;;;;;;;;5034252;28;20943;-50
2021/09/29 06:39:21;;;;;;;4.40;2.47;;;;;;;;;;5034295;28;20506;-47
2021/09/29 06:41:47;;;;;;;4.40;2.87;;;;;;;;;;5033994;28;20412;-49
2021/09/29 06:44:13;;;;;;;2.70;2.50;;;;;;;;;;5034134;28;20421;-48
2021/09/29 06:46:39;;;;;;;5.23;2.60;;;;;;;;;;5034152;28;20493;-46
2021/09/29 06:49:05;;;;;;;5.43;2.37;;;;;;;;;;5033933;28;20799;-46
2021/09/29 06:51:31;;;;;;;5.17;2.47;;;;;;;;;;5033987;28;20379;-46
2021/09/29 06:53:58;;;;;;;6.60;2.97;;;;;;;;;;5033760;28;20764;-49
2021/09/29 06:56:24;;;;;;;3.00;2.40;;;;;;;;;;5033935;28;20520;-47
2021/09/29 06:58:53;;;;;;;3.10;2.20;;;;;;;;;;5033338;28;20433;-47
2021/09/29 07:01:19;;;;;;;4.10;2.40;;;;;;;;;;5033226;28;20465;-47
2021/09/29 07:03:46;;;;;;;8.10;2.50;;;;;;;;;;5033028;28;20396;-46
2021/09/29 07:06:12;;;;;;;3.40;2.60;;;;;;;;;;5033341;28;20874;-45
2021/09/29 07:08:38;;;;;;;3.73;2.20;;;;;;;;;;5033166;28;20392;-46
2021/09/29 07:11:04;;;;;;;5.10;2.80;;;;;;;;;;5033224;28;20369;-46
2021/09/29 07:13:30;;;;;;;4.20;3.03;;;;;;;;;;5033156;28;20432;-46
2021/09/29 07:15:56;;;;;;;6.57;2.70;;;;;;;;;;5032571;28;20403;-45
2021/09/29 07:18:27;;;;;;;3.40;3.00;;;;;;;;;;5031492;28;20429;-45
2021/09/29 07:20:54;;;;;;;5.00;2.93;;;;;;;;;;5032252;28;20481;-46
2021/09/29 07:23:20;;;;;;;6.63;3.20;;;;;;;;;;5032489;28;20430;-45
2021/09/29 07:25:46;;;;;;;10.37;3.30;;;;;;;;;;5032950;28;20395;-47
2021/09/29 07:28:12;;;;;;;3.93;2.70;;;;;;;;;;5032873;28;20415;-48
2021/09/29 07:30:40;;;;;;;7.60;2.33;;;;;;;;;;5031825;28;20410;-49
2021/09/29 07:33:07;;;;;;;3.43;2.37;;;;;;;;;;5032344;28;20844;-45
2021/09/29 07:35:34;;;;;;;4.63;2.80;;;;;;;;;;5032301;28;20410;-45
2021/09/29 07:38:01;;;;;;;6.37;3.73;;;;;;;;;;5031322;28;21036;-46
2021/09/29 07:40:27;;;;;;;5.17;2.87;;;;;;;;;;5032424;28;20413;-46
2021/09/29 07:42:53;;;;;;;3.20;2.33;;;;;;;;;;5032646;28;20416;-46
2021/09/29 07:45:19;;;;;;;10.07;4.60;;;;;;;;;;5032949;28;20461;-46
2021/09/29 07:47:45;;;;;;;7.67;3.13;;;;;;;;;;5032868;28;20873;-48
2021/09/29 07:50:12;;;;;;;7.93;2.67;;;;;;;;;;5032982;28;20409;-48
2021/09/29 07:52:38;;;;;;;4.03;3.10;;;;;;;;;;5032487;28;20518;-46
2021/09/29 07:55:05;;;;;;;7.23;2.97;;;;;;;;;;5032798;28;20418;-46
2021/09/29 07:57:31;;;;;;;5.30;3.77;;;;;;;;;;5032661;28;20448;-46
2021/09/29 07:59:57;;;;;;;4.17;2.73;;;;;;;;;;5032226;28;20901;-47
2021/09/29 08:02:23;;;;;;;2.80;2.60;;;;;;;;;;5031315;28;20470;-46
2021/09/29 08:04:49;;;;;;;5.20;3.30;;;;;;;;;;5032831;28;20820;-46
2021/09/29 08:07:15;;;;;;;8.67;3.57;;;;;;;;;;5032694;28;20404;-46
2021/09/29 08:09:41;;;;;;;5.97;3.30;;;;;;;;;;5032615;28;20415;-46
2021/09/29 08:12:07;;;;;;;5.90;2.70;;;;;;;;;;5031884;28;20404;-46
2021/09/29 08:14:39;;;;;;;4.13;2.77;;;;;;;;;;5032330;28;20406;-46
2021/09/29 08:17:05;;;;;;;12.80;3.07;;;;;;;;;;5032369;28;20503;-49
2021/09/29 08:19:31;;;;;;;6.00;2.90;;;;;;;;;;5032456;28;20405;-49
2021/09/29 08:21:57;;;;;;;2.83;2.63;;;;;;;;;;5032062;28;20396;-46
2021/09/29 08:24:33;;;;;;;4.90;3.80;;;;;;;;;;5032235;28;20414;-46
2021/09/29 08:27:28;;;;;;;4.10;3.00;;;;;;;;;;5032166;28;20426;-46
2021/09/29 08:30:13;;;;;;;4.70;3.20;;;;;;;;;;5032241;28;20808;-46
2021/09/29 08:40:20;;;;;;;5.53;2.77;;;;;;;;;;5032307;28;20414;-45
2021/09/29 08:45:24;;;;;;;5.00;2.97;;;;;;;;;;5032049;28;20384;-45
2021/09/29 08:47:56;;;;;;;10.43;3.27;;;;;;;;;;5031982;28;20446;-44
2021/09/29 08:56:01;;;;;;;7.30;4.17;;;;;;;;;;5031896;28;20493;-46
2021/09/29 09:17:31;;;;;;;5.97;3.83;;;;;;;;;;5031811;28;20521;-45
2021/09/29 09:20:17;;;;;;;6.27;3.20;;;;;;;;;;5031659;28;20403;-48
2021/09/29 09:22:45;;;;;;;4.13;3.30;;;;;;;;;;5030145;28;20426;-46
2021/09/29 09:25:11;;;;;;;6.47;3.27;;;;;;;;;;5031405;28;20444;-45
2021/09/29 09:27:42;;;;;;;4.57;3.40;;;;;;;;;;5031564;28;20395;-45
2021/09/29 09:30:09;;;;;;;3.07;2.80;;;;;;;;;;5031697;28;20415;-45
2021/09/29 09:32:47;;;;;;;3.37;2.90;;;;;;;;;;5031215;28;20477;-45
2021/09/29 09:35:13;;;;;;;5.23;3.17;;;;;;;;;;5031492;28;20396;-45
2021/09/29 09:37:40;;;;;;;5.20;3.80;;;;;;;;;;5031216;28;20874;-46
2021/09/29 09:40:06;;;;;;;6.77;3.87;;;;;;;;;;5031437;28;20407;-49
2021/09/29 09:42:40;;;;;;;7.50;3.20;;;;;;;;;;5031109;28;20425;-48
2021/09/29 09:45:06;;;;;;;8.53;3.80;;;;;;;;;;5031353;28;20395;-44
2021/09/29 09:47:38;;;;;;;6.23;3.37;;;;;;;;;;5031331;28;20404;-45
2021/09/29 09:50:04;;;;;;;4.53;3.63;;;;;;;;;;5031305;28;20489;-45
2021/09/29 09:52:33;;;;;;;6.37;3.60;;;;;;;;;;5031179;28;20762;-45
2021/09/29 09:55:13;;;;;;;10.40;3.40;;;;;;;;;;5033396;28;20911;-46
2021/09/29 09:57:40;;;;;;;8.13;3.63;;;;;;;;;;5034936;28;21041;-45
2021/09/29 10:00:07;;;;;;;6.13;4.27;;;;;;;;;;5034943;28;20398;-48
2021/09/29 10:02:43;;;;;;;5.00;4.10;;;;;;;;;;5034472;28;20417;-45
2021/09/29 10:05:10;;;;;;;8.87;4.50;;;;;;;;;;5034827;28;20474;-46
2021/09/29 10:07:36;;;;;;;5.37;3.90;;;;;;;;;;5034869;28;20472;-46
2021/09/29 10:10:08;;;;;;;4.47;3.60;;;;;;;;;;5034800;28;20378;-45
2021/09/29 10:24:11;;;;;;;5.20;3.30;;;;;;;;;;5027062;28;20441;-46
2021/09/29 10:26:37;;;;;;;3.53;3.23;;;;;;;;;;5034441;28;20441;-45
2021/09/29 10:29:08;;;;;;;2.77;2.50;;;;;;;;;;5034360;28;20440;-46
2021/09/29 10:37:40;;;;;;;2.50;2.00;;;;;;;;;;5033333;28;20988;-47
2021/09/29 10:47:43;;;;;;;2.50;2.13;;;;;;;;;;5034240;28;20494;-44
2021/09/29 10:50:39;;;;;;;3.97;2.00;;;;;;;;;;5033802;28;20386;-46
2021/09/29 11:07:06;;;;;;;1.50;1.33;;;;;;;;;;5032522;28;20901;-47
2021/09/29 11:33:58;;;;;;;1.50;1.40;;;;;;;;;;5013350;28;20830;-49
2021/09/29 12:11:28;;;;;;;2.07;1.97;;;;;;;;;;5032407;28;20409;-51
2021/09/29 12:16:33;;;;;;;7.40;2.57;;;;;;;;;;5032147;28;20434;-50
2021/09/29 12:19:01;;;;;;;3.47;2.30;;;;;;;;;;5032257;28;20485;-50
2021/09/29 12:21:38;;;;;;;4.37;2.63;;;;;;;;;;5039129;28;21003;-49
2021/09/29 12:24:07;;;;;;;3.90;2.73;;;;;;;;;;5051930;28;20422;-50
2021/09/29 12:26:45;;;;;;;2.43;2.23;;;;;;;;;;5051740;28;20415;-48
2021/09/29 12:29:32;;;;;;;4.53;2.70;;;;;;;;;;5052143;28;20406;-48
2021/09/29 12:37:36;;;;;;;5.10;3.23;;;;;;;;;;5062000;28;21008;-48
2021/09/29 12:40:03;;;;;;;3.50;3.27;;;;;;;;;;5022180;28;20415;-49
2021/09/29 12:42:33;;;;;;;3.60;3.40;;;;;;;;;;5019315;28;20527;-48
2021/09/29 12:44:59;;;;;;;5.70;3.13;;;;;;;;;;5023539;28;20404;-48
2021/09/29 12:47:46;;;;;;;3.73;3.43;;;;;;;;;;5022322;28;20406;-45
2021/09/29 12:50:13;;;;;;;3.70;3.50;;;;;;;;;;5017005;28;20417;-47
2021/09/29 12:52:48;;;;;;;4.40;4.00;;;;;;;;;;5015665;28;20815;-48
2021/09/29 12:55:20;;;;;;;4.23;3.93;;;;;;;;;;5021997;28;20859;-51
2021/09/29 12:57:46;;;;;;;6.10;4.30;;;;;;;;;;5022902;28;20531;-49
2021/09/29 13:00:16;;;;;;;7.10;4.00;;;;;;;;;;5019531;28;20395;-49
2021/09/29 13:02:43;;;;;;;4.80;4.50;;;;;;;;;;5017689;28;20420;-51
2021/09/29 13:05:09;;;;;;;5.10;4.73;;;;;;;;;;5018990;28;20864;-50
2021/09/29 13:07:35;;;;;;;4.43;4.13;;;;;;;;;;5018121;28;20404;-50
2021/09/29 13:10:01;;;;;;;4.67;4.37;;;;;;;;;;5019116;28;20852;-49
2021/09/29 13:12:27;;;;;;;4.20;3.90;;;;;;;;;;5015236;28;20434;-49
2021/09/29 13:14:53;;;;;;;4.13;3.83;;;;;;;;;;5018989;28;20441;-50
2021/09/29 13:17:19;;;;;;;4.63;4.23;;;;;;;;;;5018207;28;20427;-48
2021/09/29 13:19:54;;;;;;;4.00;3.70;;;;;;;;;;5025666;28;20397;-48
2021/09/29 13:22:22;;;;;;;7.40;4.33;;;;;;;;;;5026540;28;20415;-50
2021/09/29 13:37:38;;;;;;;3.33;1.77;;;;;;;;;;5029449;28;20462;-48
2021/09/29 13:40:05;;;;;;;3.73;1.60;;;;;;;;;;5035398;28;20430;-48
2021/09/29 13:42:31;;;;;;;3.10;2.23;;;;;;;;;;5027738;28;20430;-49
2021/09/29 13:44:58;;;;;;;6.93;2.20;;;;;;;;;;5024576;28;20409;-49
2021/09/29 13:47:24;;;;;;;4.00;2.00;;;;;;;;;;5023541;28;20453;-46
2021/09/29 13:49:50;;;;;;;2.30;2.10;;;;;;;;;;5023502;28;20846;-46
2021/09/29 13:52:22;;;;;;;1.83;1.73;;;;;;;;;;5024225;28;20438;-46
2021/09/29 13:54:50;;;;;;;2.07;1.97;;;;;;;;;;5026955;28;20426;-46
2021/09/29 13:57:29;;;;;;;2.50;1.97;;;;;;;;;;5034966;28;20445;-46
2021/09/29 14:30:10;;;;;;;2.43;1.23;;;;;;;;;;5029435;28;20480;-47
2021/09/29 14:35:32;;;;;;;2.17;1.37;;;;;;;;;;5033194;28;20403;-50
2021/09/29 14:37:58;;;;;;;2.90;1.50;;;;;;;;;;5025442;28;20467;-50
2021/09/29 14:40:24;;;;;;;2.43;1.33;;;;;;;;;;5029497;28;20374;-48
2021/09/29 14:42:53;;;;;;;2.70;1.67;;;;;;;;;;5032149;28;20429;-48
2021/09/29 14:45:20;;;;;;;2.83;1.27;;;;;;;;;;5030313;28;20423;-51
2021/09/29 14:47:49;;;;;;;4.17;2.30;;;;;;;;;;5032011;28;20490;-50
2021/09/29 14:50:16;;;;;;;3.00;1.40;;;;;;;;;;5032683;28;20433;-50
2021/09/29 14:52:42;;;;;;;3.50;1.33;;;;;;;;;;5032782;28;20900;-51
2021/09/29 14:55:08;;;;;;;3.33;1.80;;;;;;;;;;5025614;28;20660;-51
2021/09/29 14:57:34;;;;;;;3.13;1.40;;;;;;;;;;5032524;28;20429;-51
2021/09/29 15:00:00;;;;;;;2.93;1.77;;;;;;;;;;5033821;28;20406;-51
2021/09/29 15:02:26;;;;;;;2.07;1.30;;;;;;;;;;5041250;28;20433;-51
2021/09/29 15:04:52;;;;;;;2.70;1.43;;;;;;;;;;5053758;28;20447;-51
2021/09/29 15:07:18;;;;;;;2.70;1.60;;;;;;;;;;5048073;28;20413;-49
2021/09/29 15:09:44;;;;;;;2.33;1.50;;;;;;;;;;5030213;28;20414;-48
2021/09/29 15:12:10;;;;;;;1.83;1.70;;;;;;;;;;5024298;28;21220;-49
2021/09/29 15:17:34;;;;;;;3.07;1.70;;;;;;;;;;5030277;28;20477;-49
2021/09/29 15:20:08;;;;;;;4.37;1.57;;;;;;;;;;5032654;28;20991;-48
2021/09/29 15:22:44;;;;;;;4.03;1.67;;;;;;;;;;5030025;28;21038;-47
2021/09/29 15:47:03;;;;;;;7.13;1.90;;;;;;;;;;5033033;28;20883;-49
2021/09/29 15:49:44;;;;;;;1.50;1.40;;;;;;;;;;5051337;28;20475;-51
2021/09/29 15:52:30;;;;;;;1.83;1.73;;;;;;;;;;5051961;28;20838;-49
2021/09/29 15:55:10;;;;;;;2.30;1.67;;;;;;;;;;5052807;28;20510;-51
2021/09/29 16:05:50;;;;;;;1.83;1.27;;;;;;;;;;5029946;28;20471;-47
2021/09/29 16:08:35;;;;;;;1.70;1.60;;;;;;;;;;5012933;28;20438;-48
2021/09/29 16:11:40;;;;;;;2.93;1.63;;;;;;;;;;5025943;28;20450;-49
2021/09/29 16:19:36;;;;;;;2.80;1.50;;;;;;;;;;5050036;28;20940;-47
2021/09/29 16:35:23;;;;;;;2.27;1.90;;;;;;;;;;5052105;28;20417;-47
2021/09/29 16:37:49;;;;;;;5.33;2.07;;;;;;;;;;5051885;28;20456;-50
2021/09/29 16:40:17;;;;;;;2.70;2.30;;;;;;;;;;5035594;28;20434;-49
2021/09/29 16:42:46;;;;;;;2.30;2.10;;;;;;;;;;5031454;28;20422;-50
2021/09/29 16:45:13;;;;;;;2.33;1.60;;;;;;;;;;5032015;28;20468;-48
2021/09/29 16:47:41;;;;;;;2.40;1.50;;;;;;;;;;5031264;28;20430;-50
2021/09/29 16:50:08;;;;;;;3.17;1.83;;;;;;;;;;5031767;28;20403;-48
2021/09/29 16:55:04;;;;;;;5.00;1.90;;;;;;;;;;5031970;28;20414;-50
2021/09/29 16:57:37;;;;;;;2.63;1.93;;;;;;;;;;5031956;28;20538;-51
2021/09/29 17:00:10;;;;;;;5.70;1.60;;;;;;;;;;5030854;28;20398;-49
2021/09/29 17:02:36;;;;;;;5.40;1.60;;;;;;;;;;5030918;28;20442;-50
2021/09/29 17:05:02;;;;;;;5.67;1.90;;;;;;;;;;5029391;28;20506;-48
2021/09/29 17:07:28;;;;;;;6.10;1.90;;;;;;;;;;5031703;28;20457;-48
2021/09/29 17:09:54;;;;;;;2.00;1.80;;;;;;;;;;5031828;28;20808;-49
2021/09/29 17:12:23;;;;;;;6.63;1.77;;;;;;;;;;5031452;28;20411;-51
2021/09/29 17:14:49;;;;;;;3.83;1.93;;;;;;;;;;5031629;28;20410;-49
2021/09/29 17:17:15;;;;;;;2.23;1.80;;;;;;;;;;5031606;28;20450;-49
2021/09/29 17:19:40;;;;;;;3.53;1.77;;;;;;;;;;5031697;28;20454;-48
2021/09/29 17:22:08;;;;;;;6.00;2.93;;;;;;;;;;5031343;28;20410;-50
2021/09/29 17:24:37;;;;;;;6.90;1.70;;;;;;;;;;5031666;28;20398;-50
2021/09/29 17:27:03;;;;;;;7.83;2.10;;;;;;;;;;5031667;28;20411;-51
2021/09/29 17:29:29;;;;;;;3.43;2.50;;;;;;;;;;5031570;28;20408;-48
2021/09/29 17:32:07;;;;;;;3.20;1.47;;;;;;;;;;5031373;28;21112;-50
2021/09/29 17:34:40;;;;;;;5.23;1.77;;;;;;;;;;5029702;28;20450;-50
2021/09/29 17:37:24;;;;;;;4.30;1.80;;;;;;;;;;5031562;28;20485;-49
2021/09/29 17:52:10;;;;;;;7.07;1.60;;;;;;;;;;5031331;28;20480;-48
2021/09/29 17:53:40;;;;;;;1.73;1.63;;;;;;;;;;5030931;28;20489;-51
2021/09/29 17:56:06;;;;;;;4.40;2.10;;;;;;;;;;5031398;28;20923;-50
2021/09/29 17:58:32;;;;;;;2.10;1.70;;;;;;;;;;5031300;28;20992;-48
2021/09/29 18:01:00;;;;;;;4.10;2.13;;;;;;;;;;5031142;28;20929;-50
2021/09/29 18:03:41;;;;;;;11.20;1.83;;;;;;;;;;5030022;28;20942;-48
2021/09/29 18:08:33;;;;;;;2.20;2.00;;;;;;;;;;5031339;28;20402;-48
2021/09/29 18:10:59;;;;;;;3.93;1.47;;;;;;;;;;5031118;28;20441;-50
2021/09/29 18:13:25;;;;;;;3.50;1.77;;;;;;;;;;5030818;28;20508;-48
2021/09/29 18:15:51;;;;;;;2.70;1.63;;;;;;;;;;5032739;28;20909;-51
2021/09/29 18:18:19;;;;;;;1.53;1.43;;;;;;;;;;5034671;28;20450;-48
2021/09/29 18:20:45;;;;;;;4.30;1.93;;;;;;;;;;5034496;28;20846;-48
2021/09/29 18:23:11;;;;;;;3.43;2.03;;;;;;;;;;5034190;28;20423;-50
2021/09/29 18:25:39;;;;;;;3.63;1.90;;;;;;;;;;5034606;28;20404;-51
2021/09/29 18:28:05;;;;;;;4.10;2.53;;;;;;;;;;5034478;28;20819;-47
2021/09/29 18:30:31;;;;;;;2.73;2.53;;;;;;;;;;5034410;28;20460;-47
2021/09/29 18:33:03;;;;;;;2.87;2.13;;;;;;;;;;5033001;28;20450;-48
2021/09/29 18:35:33;;;;;;;2.20;2.10;;;;;;;;;;5034397;28;20481;-49
2021/09/29 18:38:03;;;;;;;2.77;2.20;;;;;;;;;;5034161;28;20496;-47
2021/09/29 18:40:29;;;;;;;3.57;2.60;;;;;;;;;;5034146;28;20402;-47
2021/09/29 18:42:55;;;;;;;3.07;2.87;;;;;;;;;;5033267;28;20510;-47
2021/09/29 18:45:21;;;;;;;3.33;3.10;;;;;;;;;;5033998;28;20399;-47
2021/09/29 18:47:47;;;;;;;4.20;3.53;;;;;;;;;;5033041;28;20400;-49
2021/09/29 18:50:14;;;;;;;3.07;2.87;;;;;;;;;;5015322;28;20427;-47
2021/09/29 18:52:40;;;;;;;3.50;3.20;;;;;;;;;;5033615;28;20484;-48
2021/09/29 18:55:21;;;;;;;4.13;3.73;;;;;;;;;;5034063;28;20870;-48
2021/09/29 18:57:56;;;;;;;4.20;3.63;;;;;;;;;;5033864;28;20449;-48
2021/09/29 19:08:37;;;;;;;5.67;3.57;;;;;;;;;;5032736;28;20406;-47
2021/09/29 19:11:03;;;;;;;4.03;3.63;;;;;;;;;;5031897;28;20441;-47
2021/09/29 19:13:30;;;;;;;3.83;3.40;;;;;;;;;;5033382;28;20471;-47